Wetterdaten: Dienstag, 26.05.2015
Datum Zeit Temp. A. Feuchte A. Luftdruck Regen Wind Richtung Richtung Sonnenschein ET UV Solar Taupunkt Windchill Windben Empfang
26.05.2015 00:00 11,4 C 86 % 1010,8 hPa 0,0 l/m 0,0 km/h (0 Bft) O-SO 114 0 min 0,000 mm 0,0 UV-I 0 W/m 9,1 C 11,4 C 0,0 km/h (0 Bft) 0,00 %
26.05.2015 00:15 11,1 C 87 % 1010,6 hPa 0,0 l/m 0,4 km/h (0 Bft) SW 231 0 min 0,000 mm 0,0 UV-I 0 W/m 9,0 C 11,1 C 4,0 km/h (1 Bft) 0,00 %
26.05.2015 00:30 10,9 C 88 % 1010,7 hPa 0,0 l/m 0,0 km/h (0 Bft) S-SW 212 0 min 0,000 mm 0,0 UV-I 0 W/m 9,0 C 10,9 C 0,0 km/h (0 Bft) 0,00 %
26.05.2015 00:45 10,8 C 88 % 1010,6 hPa 0,0 l/m 0,0 km/h (0 Bft) W-SW 251 0 min 0,000 mm 0,0 UV-I 0 W/m 8,9 C 10,8 C 0,0 km/h (0 Bft) 0,00 %
26.05.2015 01:00 10,8 C 89 % 1010,6 hPa 0,0 l/m 0,0 km/h (0 Bft) S 183 0 min 0,000 mm 0,0 UV-I 0 W/m 9,1 C 10,8 C 0,0 km/h (0 Bft) 0,00 %
26.05.2015 01:15 10,8 C 89 % 1010,7 hPa 0,0 l/m 0,4 km/h (0 Bft) S-SW 202 0 min 0,000 mm 0,0 UV-I 0 W/m 9,1 C 10,8 C 4,0 km/h (1 Bft) 0,00 %
26.05.2015 01:30 11,1 C 88 % 1010,5 hPa 0,0 l/m 0,0 km/h (0 Bft) SO 134 0 min 0,000 mm 0,0 UV-I 0 W/m 9,2 C 11,1 C 0,0 km/h (0 Bft) 0,00 %
26.05.2015 01:45 11,5 C 86 % 1010,6 hPa 0,0 l/m 0,0 km/h (0 Bft) S 181 0 min 0,000 mm 0,0 UV-I 0 W/m 9,2 C 11,5 C 0,0 km/h (0 Bft) 0,00 %
26.05.2015 02:00 11,5 C 85 % 1010,4 hPa 0,0 l/m 1,8 km/h (1 Bft) SW 229 0 min 0,000 mm 0,0 UV-I 0 W/m 9,1 C 11,5 C 4,0 km/h (1 Bft) 0,00 %
26.05.2015 02:15 11,5 C 85 % 1010,4 hPa 0,0 l/m 0,0 km/h (0 Bft) S 185 0 min 0,000 mm 0,0 UV-I 0 W/m 9,1 C 11,5 C 0,0 km/h (0 Bft) 0,00 %
26.05.2015 02:30 11,5 C 85 % 1010,4 hPa 0,0 l/m 0,0 km/h (0 Bft) SO 141 0 min 0,000 mm 0,0 UV-I 0 W/m 9,1 C 11,5 C 0,0 km/h (0 Bft) 0,00 %
26.05.2015 02:45 11,5 C 85 % 1010,2 hPa 0,0 l/m 2,2 km/h (1 Bft) SW 221 0 min 0,000 mm 0,0 UV-I 0 W/m 9,1 C 11,5 C 7,9 km/h (2 Bft) 0,00 %
26.05.2015 03:00 11,6 C 85 % 1010,5 hPa 0,0 l/m 1,8 km/h (1 Bft) SW 236 0 min 0,000 mm 0,0 UV-I 0 W/m 9,2 C 11,6 C 4,0 km/h (1 Bft) 0,00 %
26.05.2015 03:15 11,6 C 85 % 1010,3 hPa 0,0 l/m 2,9 km/h (1 Bft) S-SW 208 0 min 0,000 mm 0,0 UV-I 0 W/m 9,2 C 11,6 C 4,0 km/h (1 Bft) 0,00 %
26.05.2015 03:30 11,6 C 85 % 1010,2 hPa 0,0 l/m 1,4 km/h (1 Bft) S 181 0 min 0,000 mm 0,0 UV-I 0 W/m 9,2 C 11,6 C 4,0 km/h (1 Bft) 0,00 %
26.05.2015 03:45 11,6 C 86 % 1010,3 hPa 0,0 l/m 0,7 km/h (0 Bft) W-SW 255 0 min 0,000 mm 0,0 UV-I 0 W/m 9,3 C 11,6 C 4,0 km/h (1 Bft) 0,00 %
26.05.2015 04:00 11,6 C 88 % 1010,2 hPa 0,0 l/m 5,4 km/h (1 Bft) W-NW 293 0 min 0,000 mm 0,0 UV-I 0 W/m 9,7 C 11,6 C 7,9 km/h (2 Bft) 0,00 %
26.05.2015 04:15 11,5 C 88 % 1010,2 hPa 0,0 l/m 5,4 km/h (1 Bft) W-SW 251 0 min 0,000 mm 0,0 UV-I 0 W/m 9,6 C 11,5 C 11,9 km/h (2 Bft) 0,00 %
26.05.2015 04:30 11,5 C 88 % 1010,2 hPa 0,0 l/m 1,4 km/h (1 Bft) W-SW 256 0 min 0,000 mm 0,0 UV-I 0 W/m 9,6 C 11,5 C 4,0 km/h (1 Bft) 0,00 %
26.05.2015 04:45 11,5 C 89 % 1010,6 hPa 0,0 l/m 0,0 km/h (0 Bft) S 176 0 min 0,000 mm 0,0 UV-I 0 W/m 9,8 C 11,5 C 0,0 km/h (0 Bft) 0,00 %
26.05.2015 05:00 11,5 C 89 % 1010,7 hPa 0,0 l/m 0,0 km/h (0 Bft) SW 216 0 min 0,000 mm 0,0 UV-I 0 W/m 9,8 C 11,5 C 0,0 km/h (0 Bft) 0,00 %
26.05.2015 05:15 11,5 C 89 % 1010,6 hPa 0,0 l/m 0,0 km/h (0 Bft) S-SW 194 0 min 0,000 mm 0,0 UV-I 0 W/m 9,8 C 11,5 C 0,0 km/h (0 Bft) 0,00 %
26.05.2015 05:30 11,5 C 89 % 1010,8 hPa 0,0 l/m 0,0 km/h (0 Bft) W-SW 252 0 min 0,000 mm 0,0 UV-I 0 W/m 9,8 C 11,5 C 0,0 km/h (0 Bft) 0,00 %
26.05.2015 05:45 11,6 C 89 % 1010,8 hPa 0,0 l/m 0,0 km/h (0 Bft) S 176 0 min 0,000 mm 0,0 UV-I 0 W/m 9,8 C 11,6 C 0,0 km/h (0 Bft) 0,00 %
26.05.2015 06:00 11,5 C 90 % 1010,7 hPa 0,0 l/m 1,8 km/h (1 Bft) W-SW 256 0 min 0,000 mm 0,0 UV-I 0 W/m 9,9 C 11,5 C 4,0 km/h (1 Bft) 0,00 %
26.05.2015 06:15 11,4 C 92 % 1010,7 hPa 0,3 l/m 1,8 km/h (1 Bft) S-SO 168 0 min 0,000 mm 0,0 UV-I 5 W/m 10,1 C 11,4 C 4,0 km/h (1 Bft) 0,00 %
26.05.2015 06:30 11,4 C 91 % 1010,8 hPa 0,0 l/m 3,2 km/h (1 Bft) W-SW 255 0 min 0,000 mm 0,0 UV-I 22 W/m 10,0 C 11,4 C 7,9 km/h (2 Bft) 0,00 %
26.05.2015 06:45 11,5 C 91 % 1010,9 hPa 0,0 l/m 0,0 km/h (0 Bft) S-SW 192 0 min 0,000 mm 0,0 UV-I 34 W/m 10,1 C 11,5 C 0,0 km/h (0 Bft) 0,00 %
26.05.2015 07:00 11,6 C 91 % 1010,8 hPa 0,0 l/m 0,4 km/h (0 Bft) SW 223 0 min 0,000 mm 0,0 UV-I 32 W/m 10,2 C 11,6 C 4,0 km/h (1 Bft) 0,00 %
26.05.2015 07:15 11,7 C 91 % 1010,8 hPa 0,0 l/m 1,8 km/h (1 Bft) W-SW 256 0 min 0,000 mm 0,0 UV-I 23 W/m 10,3 C 11,7 C 4,0 km/h (1 Bft) 0,00 %
26.05.2015 07:30 11,7 C 91 % 1010,9 hPa 0,0 l/m 0,0 km/h (0 Bft) S-SW 208 0 min 0,000 mm 0,0 UV-I 49 W/m 10,3 C 11,7 C 0,0 km/h (0 Bft) 0,00 %
26.05.2015 07:45 11,6 C 91 % 1011,0 hPa 0,0 l/m 0,0 km/h (0 Bft) S 181 0 min 0,000 mm 0,0 UV-I 43 W/m 10,2 C 11,6 C 0,0 km/h (0 Bft) 0,00 %
26.05.2015 08:00 11,6 C 91 % 1011,3 hPa 0,0 l/m 1,8 km/h (1 Bft) S-SW 206 0 min 0,000 mm 0,0 UV-I 35 W/m 10,2 C 11,6 C 4,0 km/h (1 Bft) 0,00 %
26.05.2015 08:15 11,7 C 91 % 1011,4 hPa 0,0 l/m 0,4 km/h (0 Bft) SW 216 0 min 0,000 mm 0,0 UV-I 64 W/m 10,3 C 11,7 C 4,0 km/h (1 Bft) 0,00 %
26.05.2015 08:30 11,7 C 91 % 1011,5 hPa 0,0 l/m 1,8 km/h (1 Bft) SW 233 0 min 0,000 mm 0,0 UV-I 34 W/m 10,3 C 11,7 C 4,0 km/h (1 Bft) 0,00 %
26.05.2015 08:45 11,7 C 92 % 1011,6 hPa 0,3 l/m 0,0 km/h (0 Bft) W-SW 252 0 min 0,000 mm 0,0 UV-I 51 W/m 10,4 C 11,7 C 0,0 km/h (0 Bft) 0,00 %
26.05.2015 09:00 11,7 C 92 % 1011,5 hPa 0,0 l/m 0,0 km/h (0 Bft) O-SO 122 0 min 0,000 mm 1,0 UV-I 67 W/m 10,4 C 11,7 C 0,0 km/h (0 Bft) 0,00 %
26.05.2015 09:15 11,8 C 92 % 1011,6 hPa 0,0 l/m 0,0 km/h (0 Bft) W 281 0 min 0,000 mm 1,0 UV-I 67 W/m 10,5 C 11,8 C 0,0 km/h (0 Bft) 0,00 %
26.05.2015 09:30 12,0 C 91 % 1011,6 hPa 0,0 l/m 1,4 km/h (1 Bft) S-SW 212 0 min 0,000 mm 1,0 UV-I 109 W/m 10,6 C 12,0 C 7,9 km/h (2 Bft) 0,00 %
26.05.2015 09:45 12,2 C 90 % 1011,9 hPa 0,0 l/m 3,2 km/h (1 Bft) S-SW 192 0 min 0,000 mm 1,0 UV-I 111 W/m 10,6 C 12,2 C 4,0 km/h (1 Bft) 0,00 %
26.05.2015 10:00 13,5 C 86 % 1011,5 hPa 0,0 l/m 0,0 km/h (0 Bft) S-SW 213 0 min 0,000 mm 3,0 UV-I 325 W/m 11,2 C 13,5 C 0,0 km/h (0 Bft) 0,00 %
26.05.2015 10:15 14,6 C 81 % 1011,4 hPa 0,0 l/m 0,7 km/h (0 Bft) SO 144 15 min 0,000 mm 2,0 UV-I 420 W/m 11,4 C 14,6 C 4,0 km/h (1 Bft) 0,00 %
26.05.2015 10:30 13,9 C 82 % 1011,7 hPa 0,0 l/m 0,0 km/h (0 Bft) W-SW 242 0 min 0,000 mm 1,0 UV-I 188 W/m 10,9 C 13,9 C 0,0 km/h (0 Bft) 0,00 %
26.05.2015 10:45 13,5 C 83 % 1011,9 hPa 0,0 l/m 0,0 km/h (0 Bft) S 181 0 min 0,000 mm 1,0 UV-I 228 W/m 10,7 C 13,5 C 0,0 km/h (0 Bft) 0,00 %
26.05.2015 11:00 13,1 C 85 % 1012,0 hPa 0,0 l/m 0,0 km/h (0 Bft) S-SW 207 0 min 0,000 mm 1,0 UV-I 63 W/m 10,6 C 13,1 C 0,0 km/h (0 Bft) 0,00 %
26.05.2015 11:15 12,9 C 86 % 1012,4 hPa 0,0 l/m 2,2 km/h (1 Bft) W-SW 256 0 min 0,000 mm 1,0 UV-I 58 W/m 10,6 C 12,9 C 7,9 km/h (2 Bft) 0,00 %
26.05.2015 11:30 12,8 C 85 % 1012,4 hPa 0,0 l/m 1,8 km/h (1 Bft) W-SW 256 0 min 0,000 mm 1,0 UV-I 138 W/m 10,3 C 12,8 C 4,0 km/h (1 Bft) 0,00 %
26.05.2015 11:45 13,2 C 83 % 1012,4 hPa 0,0 l/m 0,4 km/h (0 Bft) S 189 0 min 0,000 mm 2,0 UV-I 207 W/m 10,4 C 13,2 C 4,0 km/h (1 Bft) 0,00 %
26.05.2015 12:00 14,1 C 81 % 1012,5 hPa 0,0 l/m 0,0 km/h (0 Bft) S 187 0 min 0,000 mm 2,0 UV-I 290 W/m 10,9 C 14,1 C 0,0 km/h (0 Bft) 0,00 %
26.05.2015 12:15 14,6 C 75 % 1012,2 hPa 0,0 l/m 0,0 km/h (0 Bft) NW 323 0 min 0,000 mm 3,0 UV-I 332 W/m 10,2 C 14,6 C 0,0 km/h (0 Bft) 0,00 %
26.05.2015 12:30 15,0 C 73 % 1012,3 hPa 0,0 l/m 4,3 km/h (1 Bft) S 184 0 min 0,000 mm 2,0 UV-I 331 W/m 10,2 C 15,0 C 7,9 km/h (2 Bft) 0,00 %
26.05.2015 12:45 15,0 C 74 % 1012,3 hPa 0,0 l/m 0,0 km/h (0 Bft) S-SW 205 0 min 0,000 mm 3,0 UV-I 333 W/m 10,4 C 15,0 C 0,0 km/h (0 Bft) 0,00 %
26.05.2015 13:00 14,9 C 74 % 1012,3 hPa 0,0 l/m 2,2 km/h (1 Bft) W-SW 256 0 min 0,000 mm 2,0 UV-I 361 W/m 10,3 C 14,9 C 4,0 km/h (1 Bft) 0,00 %
26.05.2015 13:15 16,0 C 72 % 1012,4 hPa 0,0 l/m 0,7 km/h (0 Bft) SW 218 0 min 0,000 mm 2,0 UV-I 273 W/m 11,0 C 16,0 C 4,0 km/h (1 Bft) 0,00 %
26.05.2015 13:30 16,6 C 65 % 1012,2 hPa 0,0 l/m 0,0 km/h (0 Bft) S-SW 205 15 min 0,000 mm 6,0 UV-I 525 W/m 10,0 C 16,6 C 0,0 km/h (0 Bft) 0,00 %
26.05.2015 13:45 16,3 C 69 % 1012,1 hPa 0,0 l/m 4,7 km/h (1 Bft) NW 320 0 min 0,000 mm 1,0 UV-I 237 W/m 10,6 C 16,3 C 7,9 km/h (2 Bft) 0,00 %
26.05.2015 14:00 14,6 C 78 % 1012,7 hPa 0,9 l/m 0,7 km/h (0 Bft) W-SW 251 0 min 0,000 mm 0,0 UV-I 43 W/m 10,8 C 14,6 C 4,0 km/h (1 Bft) 0,00 %
26.05.2015 14:15 12,3 C 88 % 1013,3 hPa 5,7 l/m 0,0 km/h (0 Bft) SW 226 0 min 0,000 mm 0,0 UV-I 57 W/m 10,4 C 12,3 C 0,0 km/h (0 Bft) 0,00 %
26.05.2015 14:30 12,1 C 90 % 1013,4 hPa 0,9 l/m 0,0 km/h (0 Bft) S 186 0 min 0,000 mm 0,0 UV-I 64 W/m 10,5 C 12,1 C 0,0 km/h (0 Bft) 0,00 %
26.05.2015 14:45 11,5 C 92 % 1013,6 hPa 1,2 l/m 1,4 km/h (1 Bft) W-SW 251 0 min 0,000 mm 1,0 UV-I 56 W/m 10,2 C 11,5 C 4,0 km/h (1 Bft) 0,00 %
26.05.2015 15:00 11,2 C 93 % 1013,4 hPa 1,2 l/m 0,7 km/h (0 Bft) W-SW 252 0 min 0,000 mm 1,0 UV-I 82 W/m 10,1 C 11,2 C 4,0 km/h (1 Bft) 0,00 %
26.05.2015 15:15 11,6 C 93 % 1013,2 hPa 1,2 l/m 0,0 km/h (0 Bft) SW 223 0 min 0,000 mm 1,0 UV-I 169 W/m 10,5 C 11,6 C 0,0 km/h (0 Bft) 0,00 %
26.05.2015 15:30 12,4 C 93 % 1013,2 hPa 0,0 l/m 0,0 km/h (0 Bft) SW 231 0 min 0,000 mm 1,0 UV-I 190 W/m 11,3 C 12,4 C 0,0 km/h (0 Bft) 0,00 %
26.05.2015 15:45 13,0 C 92 % 1013,1 hPa 0,0 l/m 0,0 km/h (0 Bft) SW 226 0 min 0,000 mm 2,0 UV-I 229 W/m 11,7 C 13,0 C 0,0 km/h (0 Bft) 0,00 %
26.05.2015 16:00 13,1 C 90 % 1013,6 hPa 0,6 l/m 0,0 km/h (0 Bft) S-SW 211 0 min 0,000 mm 1,0 UV-I 166 W/m 11,5 C 13,1 C 0,0 km/h (0 Bft) 0,00 %
26.05.2015 16:15 12,3 C 90 % 1013,7 hPa 0,9 l/m 0,0 km/h (0 Bft) S-SW 192 0 min 0,000 mm 0,0 UV-I 53 W/m 10,7 C 12,3 C 0,0 km/h (0 Bft) 0,00 %
26.05.2015 16:30 12,4 C 92 % 1013,7 hPa 0,3 l/m 0,0 km/h (0 Bft) S 180 0 min 0,000 mm 1,0 UV-I 81 W/m 11,1 C 12,4 C 0,0 km/h (0 Bft) 0,00 %
26.05.2015 16:45 12,5 C 92 % 1013,5 hPa 0,0 l/m 0,0 km/h (0 Bft) S 181 0 min 0,000 mm 1,0 UV-I 73 W/m 11,2 C 12,5 C 0,0 km/h (0 Bft) 0,00 %
26.05.2015 17:00 12,5 C 92 % 1013,9 hPa 0,0 l/m 0,0 km/h (0 Bft) SW 222 0 min 0,000 mm 1,0 UV-I 88 W/m 11,2 C 12,5 C 0,0 km/h (0 Bft) 0,00 %
26.05.2015 17:15 12,8 C 92 % 1013,8 hPa 0,0 l/m 0,0 km/h (0 Bft) SW 225 0 min 0,000 mm 1,0 UV-I 135 W/m 11,5 C 12,8 C 0,0 km/h (0 Bft) 0,00 %
26.05.2015 17:30 13,0 C 91 % 1014,0 hPa 0,0 l/m 0,4 km/h (0 Bft) S-SO 157 0 min 0,000 mm 1,0 UV-I 152 W/m 11,6 C 13,0 C 4,0 km/h (1 Bft) 0,00 %
26.05.2015 17:45 12,6 C 89 % 1014,2 hPa 0,0 l/m 0,0 km/h (0 Bft) S 175 0 min 0,000 mm 1,0 UV-I 89 W/m 10,8 C 12,6 C 0,0 km/h (0 Bft) 0,00 %
26.05.2015 18:00 12,1 C 89 % 1014,6 hPa 0,0 l/m 0,0 km/h (0 Bft) N 352 0 min 0,000 mm 1,0 UV-I 82 W/m 10,3 C 12,1 C 0,0 km/h (0 Bft) 0,00 %
26.05.2015 18:15 12,1 C 89 % 1014,9 hPa 0,0 l/m 0,4 km/h (0 Bft) W-SW 255 0 min 0,000 mm 1,0 UV-I 86 W/m 10,3 C 12,1 C 4,0 km/h (1 Bft) 0,00 %
26.05.2015 18:30 11,9 C 88 % 1015,0 hPa 0,0 l/m 0,0 km/h (0 Bft) S-SW 195 0 min 0,000 mm 1,0 UV-I 82 W/m 10,0 C 11,9 C 0,0 km/h (0 Bft) 0,00 %
26.05.2015 18:45 12,0 C 88 % 1015,2 hPa 0,0 l/m 0,0 km/h (0 Bft) S 187 0 min 0,000 mm 1,0 UV-I 96 W/m 10,1 C 12,0 C 0,0 km/h (0 Bft) 0,00 %
26.05.2015 19:00 11,9 C 88 % 1015,4 hPa 0,0 l/m 0,0 km/h (0 Bft) S-SW 212 0 min 0,000 mm 0,0 UV-I 57 W/m 10,0 C 11,9 C 0,0 km/h (0 Bft) 0,00 %
26.05.2015 19:15 12,0 C 88 % 1015,9 hPa 0,0 l/m 0,0 km/h (0 Bft) S 190 0 min 0,000 mm 0,0 UV-I 38 W/m 10,1 C 12,0 C 0,0 km/h (0 Bft) 0,00 %
26.05.2015 19:30 11,6 C 82 % 1016,1 hPa 0,0 l/m 0,0 km/h (0 Bft) S-SW 200 0 min 0,000 mm 0,0 UV-I 20 W/m 8,6 C 11,6 C 0,0 km/h (0 Bft) 0,00 %
26.05.2015 19:45 11,5 C 79 % 1016,3 hPa 0,0 l/m 0,0 km/h (0 Bft) N-NW 348 0 min 0,000 mm 0,0 UV-I 45 W/m 8,0 C 11,5 C 0,0 km/h (0 Bft) 0,00 %
26.05.2015 20:00 11,6 C 78 % 1016,3 hPa 0,0 l/m 0,0 km/h (0 Bft) S-SW 210 0 min 0,000 mm 0,0 UV-I 36 W/m 7,9 C 11,6 C 0,0 km/h (0 Bft) 0,00 %
26.05.2015 20:15 11,4 C 82 % 1016,5 hPa 0,0 l/m 0,0 km/h (0 Bft) N-NO 32 0 min 0,000 mm 0,0 UV-I 7 W/m 8,4 C 11,4 C 0,0 km/h (0 Bft) 0,00 %
26.05.2015 20:30 11,3 C 86 % 1016,8 hPa 0,0 l/m 0,0 km/h (0 Bft) N-NO 31 0 min 0,000 mm 0,0 UV-I 0 W/m 9,0 C 11,3 C 0,0 km/h (0 Bft) 0,00 %
26.05.2015 20:45 11,0 C 89 % 1016,8 hPa 0,0 l/m 0,0 km/h (0 Bft) N-NO 32 0 min 0,000 mm 0,0 UV-I 0 W/m 9,3 C 11,0 C 0,0 km/h (0 Bft) 0,00 %
26.05.2015 21:00 10,7 C 90 % 1017,0 hPa 0,0 l/m 0,0 km/h (0 Bft) S 176 0 min 0,000 mm 0,0 UV-I 0 W/m 9,1 C 10,7 C 0,0 km/h (0 Bft) 0,00 %
26.05.2015 21:15 10,5 C 91 % 1017,3 hPa 0,0 l/m 0,0 km/h (0 Bft) S 179 0 min 0,000 mm 0,0 UV-I 0 W/m 9,1 C 10,5 C 0,0 km/h (0 Bft) 0,00 %
26.05.2015 21:30 10,4 C 93 % 1017,4 hPa 0,0 l/m 0,0 km/h (0 Bft) S 179 0 min 0,000 mm 0,0 UV-I 0 W/m 9,3 C 10,4 C 0,0 km/h (0 Bft) 0,00 %
26.05.2015 21:45 10,3 C 93 % 1017,5 hPa 0,0 l/m 0,0 km/h (0 Bft) S 191 0 min 0,000 mm 0,0 UV-I 0 W/m 9,2 C 10,3 C 0,0 km/h (0 Bft) 0,00 %
26.05.2015 22:00 10,2 C 93 % 1017,8 hPa 0,0 l/m 0,0 km/h (0 Bft) S 189 0 min 0,000 mm 0,0 UV-I 0 W/m 9,1 C 10,2 C 0,0 km/h (0 Bft) 0,00 %
26.05.2015 22:15 10,3 C 93 % 1018,0 hPa 0,0 l/m 0,0 km/h (0 Bft) S 175 0 min 0,000 mm 0,0 UV-I 0 W/m 9,2 C 10,3 C 0,0 km/h (0 Bft) 0,00 %
26.05.2015 22:30 10,2 C 92 % 1017,8 hPa 0,0 l/m 0,4 km/h (0 Bft) SW 234 0 min 0,000 mm 0,0 UV-I 0 W/m 9,0 C 10,2 C 4,0 km/h (1 Bft) 0,00 %
26.05.2015 22:45 10,2 C 90 % 1017,9 hPa 0,0 l/m 0,0 km/h (0 Bft) SW 235 0 min 0,000 mm 0,0 UV-I 0 W/m 8,6 C 10,2 C 0,0 km/h (0 Bft) 0,00 %
26.05.2015 23:00 10,2 C 88 % 1018,1 hPa 0,0 l/m 0,0 km/h (0 Bft) W-SW 238 0 min 0,000 mm 0,0 UV-I 0 W/m 8,3 C 10,2 C 0,0 km/h (0 Bft) 0,00 %
26.05.2015 23:15 10,1 C 85 % 1018,2 hPa 0,0 l/m 0,4 km/h (0 Bft) SW 218 0 min 0,000 mm 0,0 UV-I 0 W/m 7,7 C 10,1 C 4,0 km/h (1 Bft) 0,00 %
26.05.2015 23:30 10,1 C 83 % 1018,2 hPa 0,0 l/m 1,4 km/h (1 Bft) W-SW 255 0 min 0,000 mm 0,0 UV-I 0 W/m 7,3 C 10,1 C 4,0 km/h (1 Bft) 0,00 %
26.05.2015 23:45 10,0 C 81 % 1018,2 hPa 0,0 l/m 0,4 km/h (0 Bft) S-SW 195 0 min 0,000 mm 0,0 UV-I 0 W/m 6,9 C 10,0 C 4,0 km/h (1 Bft) 0,00 %
_ Min-Zeit 23:45 13:30 02:45 - 00:00 - - - - - - 23:45 23:45 00:00 00:00
Minimum _ 10,0 C 65 % 1010,2 hPa - 0,0 km/h (0 Bft) - - - - - - 6,9 C 10,0 C 0,0 km/h (0 Bft) 0,00 %
_ Max-Zeit 13:30 15:00 23:15 14:15 04:00 - - 10:15 00:00 13:30 13:30 15:45 13:30 04:15 00:00
Maximum _ 16,6 C 93 % 1018,2 hPa 5,7 l/m 5,4 km/h
W-NW (1 Bft)
- - 15 min 0,000 mm 6,0 UV-I 525 W/m 11,7 C 16,6 C 11,9 km/h
W-SW (2 Bft)
0,00 %
Durchschnitt _ 12,0 C 87 % 1013,0 hPa #13,5 l/m 0,7 km/h (0 Bft) W-SW - #30 min. #0,000 mm 1,5 UV-I 129 W/m 9,9 C 12,0 C 2,0 km/h (1 Bft) 0,00 %